Arlington, NC

5:52 PM EDT on August 31, 2016 (GMT -0400)
North Oak Ridge Community | | Change Station

Elev 1129 ft 36.21 °N, 80.75 °W | Updated 49 seconds ago

Scattered Clouds
Scattered Clouds
87.8 °F
Feels Like 92 °F
N
3.2
Wind Variable Wind from SW

Today
High -- | Low -- °F
--% Chance of Precip.
Yesterday
High -- | Low -- °F
Precip. -- in
Pressure 29.98 in
Visibility 10.0 miles
Clouds Scattered Clouds 5000 ft
Scattered Clouds 7000 ft
Heat Index 92 °F
Dew Point 68 °F
Humidity 53%
Rainfall 0.00 in
Snow Depth Not available.
6:54 AM 7:51 PM
Waning Crescent, 0% visible
METAR KUKF 312140Z AUTO 00000KT 10SM SCT050 SCT070 29/20 A2998 RMK AO2 LTG DSNT N
Pressure 29.98 in
Visibility 10.0 miles
Clouds Scattered Clouds 5000 ft
Scattered Clouds 7000 ft
Heat Index 92 °F
Dew Point 68 °F
Humidity 53%
Rainfall 0.00 in
Snow Depth Not available.
6:54 AM 7:51 PM
Waning Crescent, 0% visible
METAR KUKF 312140Z AUTO 00000KT 10SM SCT050 SCT070 29/20 A2998 RMK AO2 LTG DSNT N

10-Day Weather Forecast

Almanac

Astronomy

Aug. 31, 2016 Rise Set
Actual Time
Civil Twilight
Nautical Twilight
Astronomical Twilight
Moon
Length of Visible Light
Length of Day
Tomorrow will be .
, % of the Moon is Illuminated

Today's Extremes

State Highs State Lows

Community

WunderPhotos

Upload Photos

1,936,189 photos uploaded!

WunderBlog® & News

Nearby

Air Quality

  Air Quality AQ Index Pollutant
Not available.

Snow Depth

Station Depth Elevation

Earthquake Activity

City Distance Mag. Time & Date
Minimum magnitude displayed is 2.5.

Coastal Water Temperatures

Place Temperature

Stations

Nearby Weather Stations

Station Location Temp. Windchill Dew Point Humidity Wind Precip. Elev Updated Type
                   

Watches & Warnings

There are currently no watches in effect.